sensor_id;sensor_type;location;lat;lon;timestamp;P1;durP1;ratioP1;P2;durP2;ratioP2
40995;SDS011;26723;57.478;12.066;2022-07-23T00:00:29;6.63;;;3.70;;
40995;SDS011;26723;57.478;12.066;2022-07-23T00:03:44;6.78;;;4.10;;
40995;SDS011;26723;57.478;12.066;2022-07-23T00:06:52;5.28;;;3.83;;
40995;SDS011;26723;57.478;12.066;2022-07-23T00:10:07;3.78;;;3.38;;
40995;SDS011;26723;57.478;12.066;2022-07-23T00:13:15;5.88;;;3.63;;
40995;SDS011;26723;57.478;12.066;2022-07-23T00:16:25;6.53;;;4.05;;
40995;SDS011;26723;57.478;12.066;2022-07-23T00:19:33;5.22;;;3.53;;
40995;SDS011;26723;57.478;12.066;2022-07-23T00:22:45;5.68;;;3.50;;
40995;SDS011;26723;57.478;12.066;2022-07-23T00:25:57;6.20;;;3.53;;
40995;SDS011;26723;57.478;12.066;2022-07-23T00:29:05;4.87;;;4.07;;
40995;SDS011;26723;57.478;12.066;2022-07-23T00:32:15;4.88;;;3.80;;
40995;SDS011;26723;57.478;12.066;2022-07-23T00:35:43;3.93;;;3.53;;
40995;SDS011;26723;57.478;12.066;2022-07-23T00:38:52;6.05;;;4.10;;
40995;SDS011;26723;57.478;12.066;2022-07-23T00:42:00;7.65;;;4.00;;
40995;SDS011;26723;57.478;12.066;2022-07-23T00:45:08;5.18;;;3.95;;
40995;SDS011;26723;57.478;12.066;2022-07-23T00:48:18;5.65;;;3.55;;
40995;SDS011;26723;57.478;12.066;2022-07-23T00:51:27;6.33;;;3.50;;
40995;SDS011;26723;57.478;12.066;2022-07-23T00:54:35;5.13;;;3.60;;
40995;SDS011;26723;57.478;12.066;2022-07-23T00:57:43;4.93;;;3.95;;
40995;SDS011;26723;57.478;12.066;2022-07-23T01:00:52;6.20;;;4.28;;
40995;SDS011;26723;57.478;12.066;2022-07-23T01:04:01;5.03;;;3.57;;
40995;SDS011;26723;57.478;12.066;2022-07-23T01:07:10;6.83;;;3.90;;
40995;SDS011;26723;57.478;12.066;2022-07-23T01:10:18;5.10;;;3.63;;
40995;SDS011;26723;57.478;12.066;2022-07-23T01:13:40;7.23;;;3.73;;
40995;SDS011;26723;57.478;12.066;2022-07-23T01:16:49;5.87;;;3.80;;
40995;SDS011;26723;57.478;12.066;2022-07-23T01:19:59;6.20;;;3.73;;
40995;SDS011;26723;57.478;12.066;2022-07-23T01:23:09;5.93;;;4.00;;
40995;SDS011;26723;57.478;12.066;2022-07-23T01:26:23;4.90;;;3.80;;
40995;SDS011;26723;57.478;12.066;2022-07-23T01:29:32;4.97;;;3.90;;
40995;SDS011;26723;57.478;12.066;2022-07-23T01:32:44;5.57;;;3.87;;
40995;SDS011;26723;57.478;12.066;2022-07-23T01:35:52;6.70;;;3.85;;
40995;SDS011;26723;57.478;12.066;2022-07-23T01:39:05;6.20;;;3.97;;
40995;SDS011;26723;57.478;12.066;2022-07-23T01:42:16;4.47;;;3.72;;
40995;SDS011;26723;57.478;12.066;2022-07-23T01:45:26;6.10;;;4.00;;
40995;SDS011;26723;57.478;12.066;2022-07-23T01:48:34;6.83;;;3.83;;
40995;SDS011;26723;57.478;12.066;2022-07-23T01:51:57;5.30;;;3.70;;
40995;SDS011;26723;57.478;12.066;2022-07-23T01:55:17;4.57;;;3.70;;
40995;SDS011;26723;57.478;12.066;2022-07-23T01:58:28;5.85;;;4.00;;
40995;SDS011;26723;57.478;12.066;2022-07-23T02:01:36;5.05;;;3.67;;
40995;SDS011;26723;57.478;12.066;2022-07-23T02:04:44;4.33;;;3.83;;
40995;SDS011;26723;57.478;12.066;2022-07-23T02:07:54;6.00;;;4.13;;
40995;SDS011;26723;57.478;12.066;2022-07-23T02:11:04;5.85;;;4.10;;
40995;SDS011;26723;57.478;12.066;2022-07-23T02:14:12;4.43;;;3.80;;
40995;SDS011;26723;57.478;12.066;2022-07-23T02:17:21;5.60;;;4.00;;
40995;SDS011;26723;57.478;12.066;2022-07-23T02:20:29;4.10;;;3.70;;
40995;SDS011;26723;57.478;12.066;2022-07-23T02:23:37;9.93;;;4.63;;
40995;SDS011;26723;57.478;12.066;2022-07-23T02:26:47;6.47;;;4.00;;
40995;SDS011;26723;57.478;12.066;2022-07-23T02:29:55;6.97;;;4.28;;
40995;SDS011;26723;57.478;12.066;2022-07-23T02:33:04;7.18;;;3.65;;
40995;SDS011;26723;57.478;12.066;2022-07-23T02:36:12;7.50;;;4.28;;
40995;SDS011;26723;57.478;12.066;2022-07-23T02:39:20;4.78;;;4.20;;
40995;SDS011;26723;57.478;12.066;2022-07-23T02:42:30;4.88;;;3.83;;
40995;SDS011;26723;57.478;12.066;2022-07-23T02:45:38;4.47;;;3.67;;
40995;SDS011;26723;57.478;12.066;2022-07-23T02:48:48;4.47;;;3.90;;
40995;SDS011;26723;57.478;12.066;2022-07-23T02:51:56;5.35;;;3.80;;
40995;SDS011;26723;57.478;12.066;2022-07-23T02:55:06;4.88;;;3.45;;
40995;SDS011;26723;57.478;12.066;2022-07-23T02:58:16;4.43;;;3.83;;
40995;SDS011;26723;57.478;12.066;2022-07-23T03:01:24;5.38;;;3.72;;
40995;SDS011;26723;57.478;12.066;2022-07-23T03:04:32;5.30;;;3.83;;
40995;SDS011;26723;57.478;12.066;2022-07-23T03:07:41;5.15;;;3.60;;
40995;SDS011;26723;57.478;12.066;2022-07-23T03:10:49;3.92;;;3.58;;
40995;SDS011;26723;57.478;12.066;2022-07-23T03:13:59;4.18;;;3.78;;
40995;SDS011;26723;57.478;12.066;2022-07-23T03:17:07;6.35;;;3.70;;
40995;SDS011;26723;57.478;12.066;2022-07-23T03:20:16;6.25;;;4.10;;
40995;SDS011;26723;57.478;12.066;2022-07-23T03:23:24;6.35;;;3.72;;
40995;SDS011;26723;57.478;12.066;2022-07-23T03:26:32;4.77;;;3.47;;
40995;SDS011;26723;57.478;12.066;2022-07-23T03:29:42;6.00;;;3.80;;
40995;SDS011;26723;57.478;12.066;2022-07-23T03:32:50;6.50;;;3.75;;
40995;SDS011;26723;57.478;12.066;2022-07-23T03:35:58;7.18;;;4.25;;
40995;SDS011;26723;57.478;12.066;2022-07-23T03:39:10;5.38;;;3.78;;
40995;SDS011;26723;57.478;12.066;2022-07-23T03:42:20;3.58;;;3.28;;
40995;SDS011;26723;57.478;12.066;2022-07-23T03:45:29;4.85;;;3.50;;
40995;SDS011;26723;57.478;12.066;2022-07-23T03:48:38;4.68;;;3.40;;
40995;SDS011;26723;57.478;12.066;2022-07-23T03:51:46;7.18;;;3.35;;
40995;SDS011;26723;57.478;12.066;2022-07-23T03:54:54;4.32;;;3.30;;
40995;SDS011;26723;57.478;12.066;2022-07-23T03:58:03;3.97;;;3.05;;
40995;SDS011;26723;57.478;12.066;2022-07-23T04:01:13;3.25;;;2.92;;
40995;SDS011;26723;57.478;12.066;2022-07-23T04:04:22;2.88;;;2.67;;
40995;SDS011;26723;57.478;12.066;2022-07-23T04:07:30;4.28;;;2.45;;
40995;SDS011;26723;57.478;12.066;2022-07-23T04:10:38;1.70;;;1.60;;
40995;SDS011;26723;57.478;12.066;2022-07-23T04:13:47;1.65;;;1.55;;
40995;SDS011;26723;57.478;12.066;2022-07-23T04:16:57;1.75;;;1.10;;
40995;SDS011;26723;57.478;12.066;2022-07-23T04:20:05;1.80;;;1.05;;
40995;SDS011;26723;57.478;12.066;2022-07-23T04:23:22;0.70;;;0.60;;
40995;SDS011;26723;57.478;12.066;2022-07-23T04:26:33;0.73;;;0.70;;
40995;SDS011;26723;57.478;12.066;2022-07-23T04:29:41;0.70;;;0.70;;
40995;SDS011;26723;57.478;12.066;2022-07-23T04:32:51;0.52;;;0.52;;
40995;SDS011;26723;57.478;12.066;2022-07-23T04:36:03;0.60;;;0.60;;
40995;SDS011;26723;57.478;12.066;2022-07-23T04:39:12;0.50;;;0.50;;
40995;SDS011;26723;57.478;12.066;2022-07-23T04:42:20;0.55;;;0.40;;
40995;SDS011;26723;57.478;12.066;2022-07-23T04:45:29;1.27;;;0.60;;
40995;SDS011;26723;57.478;12.066;2022-07-23T04:48:39;0.35;;;0.35;;
40995;SDS011;26723;57.478;12.066;2022-07-23T04:51:49;0.50;;;0.50;;
40995;SDS011;26723;57.478;12.066;2022-07-23T04:54:57;1.10;;;0.40;;
40995;SDS011;26723;57.478;12.066;2022-07-23T04:58:05;0.80;;;0.30;;
40995;SDS011;26723;57.478;12.066;2022-07-23T05:01:14;0.50;;;0.50;;
40995;SDS011;26723;57.478;12.066;2022-07-23T05:04:23;0.32;;;0.30;;
40995;SDS011;26723;57.478;12.066;2022-07-23T05:07:32;0.30;;;0.30;;
40995;SDS011;26723;57.478;12.066;2022-07-23T05:10:40;0.20;;;0.20;;
40995;SDS011;26723;57.478;12.066;2022-07-23T05:13:48;0.15;;;0.15;;
40995;SDS011;26723;57.478;12.066;2022-07-23T05:16:59;0.38;;;0.38;;
40995;SDS011;26723;57.478;12.066;2022-07-23T05:20:09;0.20;;;0.20;;
40995;SDS011;26723;57.478;12.066;2022-07-23T05:23:18;0.20;;;0.20;;
40995;SDS011;26723;57.478;12.066;2022-07-23T05:26:27;0.28;;;0.28;;
40995;SDS011;26723;57.478;12.066;2022-07-23T05:29:36;0.30;;;0.30;;
40995;SDS011;26723;57.478;12.066;2022-07-23T05:32:44;0.45;;;0.40;;
40995;SDS011;26723;57.478;12.066;2022-07-23T05:36:00;0.50;;;0.50;;
40995;SDS011;26723;57.478;12.066;2022-07-23T05:39:11;0.60;;;0.60;;
40995;SDS011;26723;57.478;12.066;2022-07-23T05:42:19;0.40;;;0.40;;
40995;SDS011;26723;57.478;12.066;2022-07-23T05:45:28;0.70;;;0.70;;
40995;SDS011;26723;57.478;12.066;2022-07-23T05:48:36;0.60;;;0.60;;
40995;SDS011;26723;57.478;12.066;2022-07-23T05:52:04;0.40;;;0.40;;
40995;SDS011;26723;57.478;12.066;2022-07-23T05:55:32;0.40;;;0.40;;
40995;SDS011;26723;57.478;12.066;2022-07-23T05:58:40;0.70;;;0.70;;
40995;SDS011;26723;57.478;12.066;2022-07-23T06:01:49;0.93;;;0.50;;
40995;SDS011;26723;57.478;12.066;2022-07-23T06:04:57;0.70;;;0.63;;
40995;SDS011;26723;57.478;12.066;2022-07-23T06:08:10;0.85;;;0.30;;
40995;SDS011;26723;57.478;12.066;2022-07-23T06:11:18;0.50;;;0.50;;
40995;SDS011;26723;57.478;12.066;2022-07-23T06:14:26;0.50;;;0.50;;
40995;SDS011;26723;57.478;12.066;2022-07-23T06:17:36;0.35;;;0.35;;
40995;SDS011;26723;57.478;12.066;2022-07-23T06:20:45;0.32;;;0.32;;
40995;SDS011;26723;57.478;12.066;2022-07-23T06:23:58;0.30;;;0.30;;
40995;SDS011;26723;57.478;12.066;2022-07-23T06:27:06;0.50;;;0.50;;
40995;SDS011;26723;57.478;12.066;2022-07-23T06:30:14;0.43;;;0.43;;
40995;SDS011;26723;57.478;12.066;2022-07-23T06:33:24;0.45;;;0.40;;
40995;SDS011;26723;57.478;12.066;2022-07-23T06:36:33;0.40;;;0.40;;
40995;SDS011;26723;57.478;12.066;2022-07-23T06:39:43;0.40;;;0.40;;
40995;SDS011;26723;57.478;12.066;2022-07-23T06:42:51;1.17;;;0.52;;
40995;SDS011;26723;57.478;12.066;2022-07-23T06:46:01;0.32;;;0.32;;
40995;SDS011;26723;57.478;12.066;2022-07-23T06:49:11;0.40;;;0.40;;
40995;SDS011;26723;57.478;12.066;2022-07-23T06:52:19;0.32;;;0.32;;
40995;SDS011;26723;57.478;12.066;2022-07-23T06:55:28;0.45;;;0.45;;
40995;SDS011;26723;57.478;12.066;2022-07-23T06:58:37;0.50;;;0.50;;
40995;SDS011;26723;57.478;12.066;2022-07-23T07:01:45;0.30;;;0.30;;
40995;SDS011;26723;57.478;12.066;2022-07-23T07:04:54;0.30;;;0.30;;
40995;SDS011;26723;57.478;12.066;2022-07-23T07:08:10;0.30;;;0.30;;
40995;SDS011;26723;57.478;12.066;2022-07-23T07:11:19;0.70;;;0.70;;
40995;SDS011;26723;57.478;12.066;2022-07-23T07:14:27;0.40;;;0.40;;
40995;SDS011;26723;57.478;12.066;2022-07-23T07:17:36;0.40;;;0.40;;
40995;SDS011;26723;57.478;12.066;2022-07-23T07:20:44;0.43;;;0.43;;
40995;SDS011;26723;57.478;12.066;2022-07-23T07:23:52;0.38;;;0.38;;
40995;SDS011;26723;57.478;12.066;2022-07-23T07:27:01;0.50;;;0.50;;
40995;SDS011;26723;57.478;12.066;2022-07-23T07:30:10;0.73;;;0.50;;
40995;SDS011;26723;57.478;12.066;2022-07-23T07:33:19;0.63;;;0.63;;
40995;SDS011;26723;57.478;12.066;2022-07-23T07:36:28;0.50;;;0.50;;
40995;SDS011;26723;57.478;12.066;2022-07-23T07:39:36;0.60;;;0.60;;
40995;SDS011;26723;57.478;12.066;2022-07-23T07:42:46;0.57;;;0.57;;
40995;SDS011;26723;57.478;12.066;2022-07-23T07:45:54;0.65;;;0.65;;
40995;SDS011;26723;57.478;12.066;2022-07-23T07:49:03;0.65;;;0.65;;
40995;SDS011;26723;57.478;12.066;2022-07-23T07:52:12;0.45;;;0.45;;
40995;SDS011;26723;57.478;12.066;2022-07-23T07:55:20;1.85;;;0.60;;
40995;SDS011;26723;57.478;12.066;2022-07-23T07:58:30;0.50;;;0.50;;
40995;SDS011;26723;57.478;12.066;2022-07-23T08:01:38;0.60;;;0.60;;
40995;SDS011;26723;57.478;12.066;2022-07-23T08:04:47;0.55;;;0.55;;
40995;SDS011;26723;57.478;12.066;2022-07-23T08:07:56;0.50;;;0.50;;
40995;SDS011;26723;57.478;12.066;2022-07-23T08:11:05;0.50;;;0.50;;
40995;SDS011;26723;57.478;12.066;2022-07-23T08:14:14;0.60;;;0.60;;
40995;SDS011;26723;57.478;12.066;2022-07-23T08:17:23;0.70;;;0.70;;
40995;SDS011;26723;57.478;12.066;2022-07-23T08:20:31;0.63;;;0.63;;
40995;SDS011;26723;57.478;12.066;2022-07-23T08:23:39;0.70;;;0.70;;
40995;SDS011;26723;57.478;12.066;2022-07-23T08:26:47;0.40;;;0.40;;
40995;SDS011;26723;57.478;12.066;2022-07-23T08:29:57;0.50;;;0.50;;
40995;SDS011;26723;57.478;12.066;2022-07-23T08:33:06;0.95;;;0.50;;
40995;SDS011;26723;57.478;12.066;2022-07-23T08:36:37;0.30;;;0.30;;
40995;SDS011;26723;57.478;12.066;2022-07-23T08:39:45;0.40;;;0.40;;
40995;SDS011;26723;57.478;12.066;2022-07-23T08:42:53;5.20;;;1.05;;
40995;SDS011;26723;57.478;12.066;2022-07-23T08:46:03;0.63;;;0.50;;
40995;SDS011;26723;57.478;12.066;2022-07-23T08:49:12;0.60;;;0.60;;
40995;SDS011;26723;57.478;12.066;2022-07-23T08:52:21;0.93;;;0.40;;
40995;SDS011;26723;57.478;12.066;2022-07-23T08:55:33;0.35;;;0.35;;
40995;SDS011;26723;57.478;12.066;2022-07-23T08:58:41;0.50;;;0.50;;
40995;SDS011;26723;57.478;12.066;2022-07-23T09:01:51;0.20;;;0.20;;
40995;SDS011;26723;57.478;12.066;2022-07-23T09:04:59;0.65;;;0.43;;
40995;SDS011;26723;57.478;12.066;2022-07-23T09:08:08;0.40;;;0.40;;
40995;SDS011;26723;57.478;12.066;2022-07-23T09:11:18;0.20;;;0.20;;
40995;SDS011;26723;57.478;12.066;2022-07-23T09:14:35;0.30;;;0.30;;
40995;SDS011;26723;57.478;12.066;2022-07-23T09:17:46;0.40;;;0.40;;
40995;SDS011;26723;57.478;12.066;2022-07-23T09:21:04;0.40;;;0.40;;
40995;SDS011;26723;57.478;12.066;2022-07-23T09:24:14;0.40;;;0.35;;
40995;SDS011;26723;57.478;12.066;2022-07-23T09:27:23;0.35;;;0.35;;
40995;SDS011;26723;57.478;12.066;2022-07-23T09:31:00;0.40;;;0.40;;
40995;SDS011;26723;57.478;12.066;2022-07-23T09:34:10;0.30;;;0.30;;
40995;SDS011;26723;57.478;12.066;2022-07-23T09:37:20;0.30;;;0.30;;
40995;SDS011;26723;57.478;12.066;2022-07-23T09:40:28;0.85;;;0.30;;
40995;SDS011;26723;57.478;12.066;2022-07-23T09:43:36;0.40;;;0.40;;
40995;SDS011;26723;57.478;12.066;2022-07-23T09:46:45;0.30;;;0.30;;
40995;SDS011;26723;57.478;12.066;2022-07-23T09:49:59;0.40;;;0.40;;
40995;SDS011;26723;57.478;12.066;2022-07-23T09:53:11;0.40;;;0.40;;
40995;SDS011;26723;57.478;12.066;2022-07-23T09:56:32;0.22;;;0.22;;
40995;SDS011;26723;57.478;12.066;2022-07-23T09:59:42;0.43;;;0.43;;
40995;SDS011;26723;57.478;12.066;2022-07-23T10:02:55;0.50;;;0.50;;
40995;SDS011;26723;57.478;12.066;2022-07-23T10:06:09;0.30;;;0.30;;
40995;SDS011;26723;57.478;12.066;2022-07-23T10:09:37;0.40;;;0.40;;
40995;SDS011;26723;57.478;12.066;2022-07-23T10:13:15;0.30;;;0.30;;
40995;SDS011;26723;57.478;12.066;2022-07-23T10:16:39;0.43;;;0.43;;
40995;SDS011;26723;57.478;12.066;2022-07-23T10:19:47;0.50;;;0.50;;
40995;SDS011;26723;57.478;12.066;2022-07-23T10:23:04;0.40;;;0.40;;
40995;SDS011;26723;57.478;12.066;2022-07-23T10:26:23;0.57;;;0.50;;
40995;SDS011;26723;57.478;12.066;2022-07-23T10:29:41;0.40;;;0.40;;
40995;SDS011;26723;57.478;12.066;2022-07-23T10:32:59;0.40;;;0.40;;
40995;SDS011;26723;57.478;12.066;2022-07-23T10:36:40;0.60;;;0.60;;
40995;SDS011;26723;57.478;12.066;2022-07-23T10:40:12;0.50;;;0.50;;
40995;SDS011;26723;57.478;12.066;2022-07-23T10:43:23;0.45;;;0.45;;
40995;SDS011;26723;57.478;12.066;2022-07-23T10:46:32;0.35;;;0.35;;
40995;SDS011;26723;57.478;12.066;2022-07-23T10:49:45;0.40;;;0.40;;
40995;SDS011;26723;57.478;12.066;2022-07-23T10:53:12;0.40;;;0.40;;
40995;SDS011;26723;57.478;12.066;2022-07-23T11:03:37;0.30;;;0.30;;
40995;SDS011;26723;57.478;12.066;2022-07-23T11:10:31;0.40;;;0.40;;
40995;SDS011;26723;57.478;12.066;2022-07-23T11:13:42;0.35;;;0.35;;
40995;SDS011;26723;57.478;12.066;2022-07-23T11:16:58;0.50;;;0.50;;
40995;SDS011;26723;57.478;12.066;2022-07-23T11:20:16;0.40;;;0.40;;
40995;SDS011;26723;57.478;12.066;2022-07-23T11:23:35;0.70;;;0.70;;
40995;SDS011;26723;57.478;12.066;2022-07-23T11:27:07;0.60;;;0.60;;
40995;SDS011;26723;57.478;12.066;2022-07-23T11:33:46;1.45;;;0.50;;
40995;SDS011;26723;57.478;12.066;2022-07-23T11:37:36;0.50;;;0.50;;
40995;SDS011;26723;57.478;12.066;2022-07-23T11:40:46;0.35;;;0.35;;
40995;SDS011;26723;57.478;12.066;2022-07-23T11:43:55;0.40;;;0.40;;
40995;SDS011;26723;57.478;12.066;2022-07-23T11:47:04;0.22;;;0.22;;
40995;SDS011;26723;57.478;12.066;2022-07-23T11:50:15;0.40;;;0.40;;
40995;SDS011;26723;57.478;12.066;2022-07-23T11:53:23;0.85;;;0.40;;
40995;SDS011;26723;57.478;12.066;2022-07-23T11:56:34;0.45;;;0.45;;
40995;SDS011;26723;57.478;12.066;2022-07-23T11:59:42;0.50;;;0.50;;
40995;SDS011;26723;57.478;12.066;2022-07-23T12:02:54;0.75;;;0.20;;
40995;SDS011;26723;57.478;12.066;2022-07-23T12:06:07;0.57;;;0.30;;
40995;SDS011;26723;57.478;12.066;2022-07-23T12:09:15;0.32;;;0.32;;
40995;SDS011;26723;57.478;12.066;2022-07-23T12:12:24;0.22;;;0.22;;
40995;SDS011;26723;57.478;12.066;2022-07-23T12:15:35;1.27;;;0.43;;
40995;SDS011;26723;57.478;12.066;2022-07-23T12:18:46;0.38;;;0.38;;
40995;SDS011;26723;57.478;12.066;2022-07-23T12:21:57;0.30;;;0.30;;
40995;SDS011;26723;57.478;12.066;2022-07-23T12:25:09;0.30;;;0.30;;
40995;SDS011;26723;57.478;12.066;2022-07-23T12:28:21;0.43;;;0.43;;
40995;SDS011;26723;57.478;12.066;2022-07-23T12:31:35;0.65;;;0.20;;
40995;SDS011;26723;57.478;12.066;2022-07-23T12:34:45;0.22;;;0.22;;
40995;SDS011;26723;57.478;12.066;2022-07-23T12:37:59;0.20;;;0.20;;
40995;SDS011;26723;57.478;12.066;2022-07-23T12:41:11;0.40;;;0.38;;
40995;SDS011;26723;57.478;12.066;2022-07-23T12:44:19;1.00;;;0.50;;
40995;SDS011;26723;57.478;12.066;2022-07-23T12:47:27;0.60;;;0.60;;
40995;SDS011;26723;57.478;12.066;2022-07-23T12:50:47;0.30;;;0.30;;
40995;SDS011;26723;57.478;12.066;2022-07-23T12:54:05;0.47;;;0.40;;
40995;SDS011;26723;57.478;12.066;2022-07-23T12:57:15;0.60;;;0.60;;
40995;SDS011;26723;57.478;12.066;2022-07-23T13:00:24;0.30;;;0.30;;
40995;SDS011;26723;57.478;12.066;2022-07-23T13:03:34;0.50;;;0.50;;
40995;SDS011;26723;57.478;12.066;2022-07-23T13:06:46;0.40;;;0.40;;
40995;SDS011;26723;57.478;12.066;2022-07-23T13:09:57;0.88;;;0.57;;
40995;SDS011;26723;57.478;12.066;2022-07-23T13:13:07;0.30;;;0.30;;
40995;SDS011;26723;57.478;12.066;2022-07-23T13:16:20;0.90;;;0.57;;
40995;SDS011;26723;57.478;12.066;2022-07-23T13:19:28;0.50;;;0.50;;
40995;SDS011;26723;57.478;12.066;2022-07-23T13:22:37;0.75;;;0.60;;
40995;SDS011;26723;57.478;12.066;2022-07-23T13:25:46;0.40;;;0.40;;
40995;SDS011;26723;57.478;12.066;2022-07-23T13:28:55;0.35;;;0.35;;
40995;SDS011;26723;57.478;12.066;2022-07-23T13:32:08;0.52;;;0.52;;
40995;SDS011;26723;57.478;12.066;2022-07-23T13:35:19;0.50;;;0.50;;
40995;SDS011;26723;57.478;12.066;2022-07-23T13:38:27;0.68;;;0.68;;
40995;SDS011;26723;57.478;12.066;2022-07-23T13:41:37;0.60;;;0.60;;
40995;SDS011;26723;57.478;12.066;2022-07-23T13:44:55;0.50;;;0.50;;
40995;SDS011;26723;57.478;12.066;2022-07-23T13:48:03;0.60;;;0.60;;
40995;SDS011;26723;57.478;12.066;2022-07-23T13:51:12;1.80;;;1.80;;
40995;SDS011;26723;57.478;12.066;2022-07-23T13:54:21;0.40;;;0.40;;
40995;SDS011;26723;57.478;12.066;2022-07-23T13:57:31;0.55;;;0.55;;
40995;SDS011;26723;57.478;12.066;2022-07-23T14:00:41;0.63;;;0.63;;
40995;SDS011;26723;57.478;12.066;2022-07-23T14:03:59;0.50;;;0.50;;
40995;SDS011;26723;57.478;12.066;2022-07-23T14:07:07;1.55;;;0.60;;
40995;SDS011;26723;57.478;12.066;2022-07-23T14:10:17;0.82;;;0.73;;
40995;SDS011;26723;57.478;12.066;2022-07-23T14:13:29;0.50;;;0.50;;
40995;SDS011;26723;57.478;12.066;2022-07-23T14:16:38;0.60;;;0.60;;
40995;SDS011;26723;57.478;12.066;2022-07-23T14:19:46;0.70;;;0.70;;
40995;SDS011;26723;57.478;12.066;2022-07-23T14:22:54;0.45;;;0.45;;
40995;SDS011;26723;57.478;12.066;2022-07-23T14:26:09;0.95;;;0.80;;
40995;SDS011;26723;57.478;12.066;2022-07-23T14:29:22;1.40;;;1.30;;
40995;SDS011;26723;57.478;12.066;2022-07-23T14:32:30;0.73;;;0.73;;
40995;SDS011;26723;57.478;12.066;2022-07-23T14:35:39;0.90;;;0.90;;
40995;SDS011;26723;57.478;12.066;2022-07-23T14:38:47;1.30;;;0.77;;
40995;SDS011;26723;57.478;12.066;2022-07-23T14:41:55;0.90;;;0.88;;
40995;SDS011;26723;57.478;12.066;2022-07-23T14:45:06;0.80;;;0.80;;
40995;SDS011;26723;57.478;12.066;2022-07-23T14:48:16;0.80;;;0.80;;
40995;SDS011;26723;57.478;12.066;2022-07-23T14:51:27;0.75;;;0.70;;
40995;SDS011;26723;57.478;12.066;2022-07-23T14:54:35;1.75;;;0.80;;
40995;SDS011;26723;57.478;12.066;2022-07-23T14:57:43;0.80;;;0.80;;
40995;SDS011;26723;57.478;12.066;2022-07-23T15:00:53;1.00;;;1.00;;
40995;SDS011;26723;57.478;12.066;2022-07-23T15:04:02;0.80;;;0.80;;
40995;SDS011;26723;57.478;12.066;2022-07-23T15:07:30;0.70;;;0.70;;
40995;SDS011;26723;57.478;12.066;2022-07-23T15:10:38;0.70;;;0.70;;
40995;SDS011;26723;57.478;12.066;2022-07-23T15:13:47;5.32;;;0.93;;
40995;SDS011;26723;57.478;12.066;2022-07-23T15:16:58;0.90;;;0.90;;
40995;SDS011;26723;57.478;12.066;2022-07-23T15:20:06;0.80;;;0.80;;
40995;SDS011;26723;57.478;12.066;2022-07-23T15:23:16;0.98;;;0.98;;
40995;SDS011;26723;57.478;12.066;2022-07-23T15:26:24;1.15;;;1.13;;
40995;SDS011;26723;57.478;12.066;2022-07-23T15:29:32;1.00;;;0.90;;
40995;SDS011;26723;57.478;12.066;2022-07-23T15:32:42;1.10;;;0.98;;
40995;SDS011;26723;57.478;12.066;2022-07-23T15:35:50;1.00;;;1.00;;
40995;SDS011;26723;57.478;12.066;2022-07-23T15:39:02;1.10;;;1.10;;
40995;SDS011;26723;57.478;12.066;2022-07-23T15:42:12;1.23;;;1.20;;
40995;SDS011;26723;57.478;12.066;2022-07-23T15:45:21;1.20;;;1.20;;
40995;SDS011;26723;57.478;12.066;2022-07-23T15:48:31;1.30;;;1.30;;
40995;SDS011;26723;57.478;12.066;2022-07-23T15:51:43;1.33;;;1.30;;
40995;SDS011;26723;57.478;12.066;2022-07-23T15:54:53;1.00;;;1.00;;
40995;SDS011;26723;57.478;12.066;2022-07-23T15:58:02;1.10;;;1.10;;
40995;SDS011;26723;57.478;12.066;2022-07-23T16:01:11;1.15;;;1.15;;
40995;SDS011;26723;57.478;12.066;2022-07-23T16:04:21;1.27;;;1.27;;
40995;SDS011;26723;57.478;12.066;2022-07-23T16:07:29;0.95;;;0.95;;
40995;SDS011;26723;57.478;12.066;2022-07-23T16:10:43;1.20;;;1.10;;
40995;SDS011;26723;57.478;12.066;2022-07-23T16:13:51;0.80;;;0.80;;
40995;SDS011;26723;57.478;12.066;2022-07-23T16:17:00;1.08;;;0.95;;
40995;SDS011;26723;57.478;12.066;2022-07-23T16:20:10;1.25;;;1.20;;
40995;SDS011;26723;57.478;12.066;2022-07-23T16:23:19;1.10;;;1.10;;
40995;SDS011;26723;57.478;12.066;2022-07-23T16:26:27;1.23;;;1.17;;
40995;SDS011;26723;57.478;12.066;2022-07-23T16:29:35;1.20;;;1.20;;
40995;SDS011;26723;57.478;12.066;2022-07-23T16:32:44;1.00;;;1.00;;
40995;SDS011;26723;57.478;12.066;2022-07-23T16:35:54;1.08;;;1.08;;
40995;SDS011;26723;57.478;12.066;2022-07-23T16:39:03;1.20;;;1.20;;
40995;SDS011;26723;57.478;12.066;2022-07-23T16:42:12;1.40;;;1.30;;
40995;SDS011;26723;57.478;12.066;2022-07-23T16:45:20;1.10;;;1.10;;
40995;SDS011;26723;57.478;12.066;2022-07-23T16:48:28;1.20;;;1.20;;
40995;SDS011;26723;57.478;12.066;2022-07-23T16:51:38;1.20;;;1.20;;
40995;SDS011;26723;57.478;12.066;2022-07-23T16:54:47;1.08;;;1.08;;
40995;SDS011;26723;57.478;12.066;2022-07-23T16:57:55;1.30;;;1.30;;
40995;SDS011;26723;57.478;12.066;2022-07-23T17:01:03;1.20;;;1.20;;
40995;SDS011;26723;57.478;12.066;2022-07-23T17:04:12;1.60;;;1.50;;
40995;SDS011;26723;57.478;12.066;2022-07-23T17:07:22;1.60;;;1.50;;
40995;SDS011;26723;57.478;12.066;2022-07-23T17:10:30;1.40;;;1.40;;
40995;SDS011;26723;57.478;12.066;2022-07-23T17:13:39;2.70;;;1.60;;
40995;SDS011;26723;57.478;12.066;2022-07-23T17:16:47;1.40;;;1.30;;
40995;SDS011;26723;57.478;12.066;2022-07-23T17:19:55;1.30;;;1.30;;
40995;SDS011;26723;57.478;12.066;2022-07-23T17:23:05;1.70;;;1.60;;
40995;SDS011;26723;57.478;12.066;2022-07-23T17:26:13;1.33;;;1.33;;
40995;SDS011;26723;57.478;12.066;2022-07-23T17:29:21;1.70;;;1.40;;
40995;SDS011;26723;57.478;12.066;2022-07-23T17:32:33;1.30;;;1.30;;
40995;SDS011;26723;57.478;12.066;2022-07-23T17:35:42;1.65;;;1.60;;
40995;SDS011;26723;57.478;12.066;2022-07-23T17:38:51;1.40;;;1.40;;
40995;SDS011;26723;57.478;12.066;2022-07-23T17:42:00;1.33;;;1.30;;
40995;SDS011;26723;57.478;12.066;2022-07-23T17:45:08;1.40;;;1.30;;
40995;SDS011;26723;57.478;12.066;2022-07-23T17:48:22;1.33;;;1.33;;
40995;SDS011;26723;57.478;12.066;2022-07-23T17:51:31;1.50;;;1.50;;
40995;SDS011;26723;57.478;12.066;2022-07-23T17:54:41;1.25;;;1.25;;
40995;SDS011;26723;57.478;12.066;2022-07-23T17:57:50;1.92;;;1.50;;
40995;SDS011;26723;57.478;12.066;2022-07-23T18:00:59;3.70;;;1.70;;
40995;SDS011;26723;57.478;12.066;2022-07-23T18:04:07;2.97;;;1.50;;
40995;SDS011;26723;57.478;12.066;2022-07-23T18:07:19;2.35;;;1.38;;
40995;SDS011;26723;57.478;12.066;2022-07-23T18:10:29;1.20;;;1.20;;
40995;SDS011;26723;57.478;12.066;2022-07-23T18:13:38;2.10;;;1.33;;
40995;SDS011;26723;57.478;12.066;2022-07-23T18:16:46;2.03;;;1.50;;
40995;SDS011;26723;57.478;12.066;2022-07-23T18:19:55;1.50;;;1.40;;
40995;SDS011;26723;57.478;12.066;2022-07-23T18:23:04;1.70;;;1.30;;
40995;SDS011;26723;57.478;12.066;2022-07-23T18:26:13;1.10;;;1.10;;
40995;SDS011;26723;57.478;12.066;2022-07-23T18:29:22;1.33;;;1.33;;
40995;SDS011;26723;57.478;12.066;2022-07-23T18:32:30;1.60;;;1.50;;
40995;SDS011;26723;57.478;12.066;2022-07-23T18:35:38;1.10;;;1.10;;
40995;SDS011;26723;57.478;12.066;2022-07-23T18:38:47;1.13;;;1.13;;
40995;SDS011;26723;57.478;12.066;2022-07-23T18:42:10;1.60;;;1.30;;
40995;SDS011;26723;57.478;12.066;2022-07-23T18:45:21;1.20;;;1.20;;
40995;SDS011;26723;57.478;12.066;2022-07-23T18:48:29;1.20;;;1.10;;
40995;SDS011;26723;57.478;12.066;2022-07-23T18:51:38;1.00;;;1.00;;
40995;SDS011;26723;57.478;12.066;2022-07-23T18:54:47;1.08;;;1.08;;
40995;SDS011;26723;57.478;12.066;2022-07-23T18:57:57;1.10;;;1.10;;
40995;SDS011;26723;57.478;12.066;2022-07-23T19:01:09;0.95;;;0.93;;
40995;SDS011;26723;57.478;12.066;2022-07-23T19:04:18;1.85;;;1.02;;